createdAt,value
2019-03-18T00:00:25.802Z,100004.73
2019-03-18T00:02:55.266Z,100005.12
2019-03-18T00:05:24.637Z,100014.95
2019-03-18T00:07:54.075Z,100014.30
2019-03-18T00:10:23.485Z,100021.91
2019-03-18T00:12:52.907Z,100033.50
2019-03-18T00:15:22.317Z,100040.28
2019-03-18T00:17:51.761Z,100033.39
2019-03-18T00:20:21.173Z,100024.41
2019-03-18T00:22:50.599Z,100020.13
2019-03-18T00:25:20.008Z,100028.30
2019-03-18T00:27:49.681Z,100040.34
2019-03-18T00:30:19.825Z,100039.96
2019-03-18T00:32:49.265Z,100034.69
2019-03-18T00:35:18.675Z,100047.79
2019-03-18T00:37:48.124Z,100040.55
2019-03-18T00:40:18.361Z,100044.91
2019-03-18T00:42:47.793Z,100047.23
2019-03-18T00:45:17.206Z,100056.39
2019-03-18T00:47:46.887Z,100056.11
2019-03-18T00:50:16.936Z,100057.02
2019-03-18T00:52:46.376Z,100061.65
2019-03-18T00:55:15.790Z,100063.39
2019-03-18T00:57:45.228Z,100064.20
2019-03-18T01:00:15.784Z,100072.55
2019-03-18T01:02:45.213Z,100068.61
2019-03-18T01:05:14.623Z,100069.00
2019-03-18T01:07:44.142Z,100068.16
2019-03-18T01:10:14.591Z,100074.75
2019-03-18T01:12:44.031Z,100080.28
2019-03-18T01:15:13.441Z,100072.49
2019-03-18T01:17:42.889Z,100069.16
2019-03-18T01:20:13.146Z,100079.61
2019-03-18T01:22:42.576Z,100072.44
2019-03-18T01:25:11.985Z,100071.70
2019-03-18T01:27:41.419Z,100063.28
2019-03-18T01:30:15.047Z,100067.06
2019-03-18T01:32:44.464Z,100071.14
2019-03-18T01:35:13.873Z,100063.58
2019-03-18T01:37:43.310Z,100067.86
2019-03-18T01:40:13.456Z,100068.14
2019-03-18T01:42:42.915Z,100064.31
2019-03-18T01:45:12.392Z,100078.36
2019-03-18T01:47:41.824Z,100068.14
2019-03-18T01:50:15.125Z,100075.93
2019-03-18T01:52:44.563Z,100066.55
2019-03-18T01:55:13.977Z,100073.63
2019-03-18T01:57:43.418Z,100065.16
2019-03-18T02:00:14.830Z,100071.19
2019-03-18T02:02:44.349Z,100076.00
2019-03-18T02:05:13.752Z,100076.55
2019-03-18T02:07:43.184Z,100079.89
2019-03-18T02:10:14.593Z,100075.64
2019-03-18T02:12:44.032Z,100074.41
2019-03-18T02:15:14.381Z,100079.89
2019-03-18T02:17:43.826Z,100085.25
2019-03-18T02:20:19.446Z,100100.48
2019-03-18T02:22:48.002Z,100108.34
2019-03-18T02:25:17.710Z,100104.09
2019-03-18T02:27:47.146Z,100099.91
2019-03-18T02:30:17.706Z,100103.81
2019-03-18T02:32:47.143Z,100107.86
2019-03-18T02:35:16.555Z,100111.30
2019-03-18T02:37:45.989Z,100106.50
2019-03-18T02:40:15.395Z,100108.25
2019-03-18T02:42:45.149Z,100103.12
2019-03-18T02:45:14.565Z,100107.51
2019-03-18T02:47:44.056Z,100101.64
2019-03-18T02:50:14.667Z,100101.55
2019-03-18T02:52:44.106Z,100109.78
2019-03-18T02:55:13.535Z,100119.71
2019-03-18T02:57:42.947Z,100111.50
2019-03-18T03:00:13.686Z,100114.48
2019-03-18T03:02:43.115Z,100111.12
2019-03-18T03:05:13.027Z,100107.22
2019-03-18T03:07:42.499Z,100116.70
2019-03-18T03:10:12.940Z,100126.23
2019-03-18T03:12:42.358Z,100117.25
2019-03-18T03:15:13.051Z,100115.17
2019-03-18T03:17:42.450Z,100121.14
2019-03-18T03:20:12.038Z,100128.92
2019-03-18T03:22:41.448Z,100125.94
2019-03-18T03:25:11.167Z,100136.93
2019-03-18T03:27:40.574Z,100149.74
2019-03-18T03:30:14.646Z,100152.05
2019-03-18T03:32:44.139Z,100152.95
2019-03-18T03:35:14.061Z,100156.09
2019-03-18T03:37:43.707Z,100158.69
2019-03-18T03:40:13.138Z,100159.69
2019-03-18T03:42:42.554Z,100165.66
2019-03-18T03:45:15.209Z,100174.65
2019-03-18T03:47:44.647Z,100175.29
2019-03-18T03:50:14.903Z,100157.04
2019-03-18T03:52:44.317Z,100166.28
2019-03-18T03:55:14.108Z,100166.67
2019-03-18T03:57:43.506Z,100166.82
2019-03-18T04:00:15.262Z,100171.31
2019-03-18T04:02:44.656Z,100187.57
2019-03-18T04:05:14.090Z,100183.83
2019-03-18T04:07:43.510Z,100186.58
2019-03-18T04:10:14.732Z,100190.63
2019-03-18T04:12:44.145Z,100196.72
2019-03-18T04:15:15.506Z,100204.50
2019-03-18T04:17:45.106Z,100201.91
2019-03-18T04:20:15.372Z,100203.89
2019-03-18T04:22:45.246Z,100199.25
2019-03-18T04:25:14.661Z,100200.70
2019-03-18T04:27:44.077Z,100204.44
2019-03-18T04:30:16.989Z,100198.02
2019-03-18T04:32:46.404Z,100200.76
2019-03-18T04:35:15.834Z,100205.09
2019-03-18T04:37:45.237Z,100222.48
2019-03-18T04:40:14.674Z,100222.80
2019-03-18T04:42:44.085Z,100226.53
2019-03-18T04:45:13.530Z,100232.70
2019-03-18T04:47:42.931Z,100228.42
2019-03-18T04:50:12.805Z,100235.44
2019-03-18T04:52:42.323Z,100233.39
2019-03-18T04:55:11.755Z,100235.59
2019-03-18T04:57:41.169Z,100236.48
2019-03-18T05:00:12.045Z,100229.41
2019-03-18T05:02:41.452Z,100228.72
2019-03-18T05:05:10.885Z,100222.02
2019-03-18T05:07:40.374Z,100224.97
2019-03-18T05:10:10.255Z,100227.96
2019-03-18T05:12:39.669Z,100229.65
2019-03-18T05:15:09.946Z,100226.13
2019-03-18T05:17:39.387Z,100227.42
2019-03-18T05:20:10.148Z,100232.24
2019-03-18T05:22:39.574Z,100232.69
2019-03-18T05:25:09.949Z,100233.84
2019-03-18T05:27:39.345Z,100233.05
2019-03-18T05:30:13.343Z,100230.02
2019-03-18T05:32:42.758Z,100237.64
2019-03-18T05:35:12.198Z,100239.48
2019-03-18T05:37:41.611Z,100256.94
2019-03-18T05:40:11.053Z,100252.00
2019-03-18T05:42:40.489Z,100257.34
2019-03-18T05:45:10.967Z,100254.30
2019-03-18T05:47:40.392Z,100259.25
2019-03-18T05:50:11.620Z,100263.92
2019-03-18T05:52:41.029Z,100273.36
2019-03-18T05:55:10.543Z,100269.42
2019-03-18T05:57:39.947Z,100273.06
2019-03-18T06:00:13.053Z,100272.41
2019-03-18T06:02:42.490Z,100277.50
2019-03-18T06:05:11.905Z,100286.50
2019-03-18T06:07:41.357Z,100280.47
2019-03-18T06:10:12.816Z,100289.00
2019-03-18T06:12:42.607Z,100292.02
2019-03-18T06:15:12.733Z,100299.95
2019-03-18T06:17:51.796Z,100293.77
2019-03-18T06:20:13.819Z,100299.73
2019-03-18T06:22:43.271Z,100297.80
2019-03-18T06:25:12.700Z,100305.98
2019-03-18T06:27:42.126Z,100297.80
2019-03-18T06:30:15.328Z,100310.41
2019-03-18T06:32:44.759Z,100313.98
2019-03-18T06:35:14.203Z,100313.73
2019-03-18T06:37:43.615Z,100308.03
2019-03-18T06:40:14.109Z,100297.70
2019-03-18T06:42:43.527Z,100308.48
2019-03-18T06:45:12.966Z,100308.03
2019-03-18T06:47:42.375Z,100308.84
2019-03-18T06:50:12.472Z,100318.71
2019-03-18T06:52:41.887Z,100314.53
2019-03-18T06:55:11.323Z,100306.97
2019-03-18T06:57:40.740Z,100313.63
2019-03-18T07:00:16.663Z,100306.40
2019-03-18T07:02:46.074Z,100308.52
2019-03-18T07:05:15.755Z,100315.28
2019-03-18T07:07:45.162Z,100325.88
2019-03-18T07:10:14.680Z,100325.36
2019-03-18T07:12:44.097Z,100342.59
2019-03-18T07:15:13.559Z,100345.63
2019-03-18T07:17:42.977Z,100351.16
2019-03-18T07:20:13.619Z,100340.69
2019-03-18T07:22:43.014Z,100332.34
2019-03-18T07:25:12.457Z,100337.64
2019-03-18T07:27:43.621Z,100343.89
2019-03-18T07:30:15.482Z,100341.67
2019-03-18T07:32:44.894Z,100341.11
2019-03-18T07:35:14.333Z,100351.51
2019-03-18T07:37:43.754Z,100346.28
2019-03-18T07:40:15.310Z,100350.64
2019-03-18T07:42:44.717Z,100352.97
2019-03-18T07:45:16.052Z,100355.41
2019-03-18T07:47:45.720Z,100364.90
2019-03-18T07:50:15.631Z,100381.38
2019-03-18T07:52:45.035Z,100368.05
2019-03-18T07:55:14.475Z,100393.17
2019-03-18T07:57:43.885Z,100382.02
2019-03-18T08:00:14.271Z,100381.80
2019-03-18T08:02:43.697Z,100374.12
2019-03-18T08:05:13.210Z,100378.38
2019-03-18T08:07:42.629Z,100393.65
2019-03-18T08:10:15.041Z,100375.95
2019-03-18T08:12:44.450Z,100378.81
2019-03-18T08:15:14.059Z,100391.58
2019-03-18T08:17:43.466Z,100384.79
2019-03-18T08:20:13.253Z,100382.80
2019-03-18T08:22:42.658Z,100388.86
2019-03-18T08:25:12.097Z,100405.20
2019-03-18T08:27:41.500Z,100406.47
2019-03-18T08:30:16.015Z,100399.05
2019-03-18T08:32:45.429Z,100404.53
2019-03-18T08:35:14.905Z,100408.12
2019-03-18T08:37:44.318Z,100402.31
2019-03-18T08:40:13.785Z,100394.54
2019-03-18T08:42:43.209Z,100398.93
2019-03-18T08:45:15.354Z,100397.20
2019-03-18T08:47:44.756Z,100408.28
2019-03-18T08:50:14.188Z,100399.37
2019-03-18T08:52:43.596Z,100398.47
2019-03-18T08:55:14.108Z,100388.53
2019-03-18T08:57:43.541Z,100394.51
2019-03-18T09:00:17.069Z,100394.79
2019-03-18T09:02:46.483Z,100395.79
2019-03-18T09:05:15.974Z,100425.44
2019-03-18T09:07:45.394Z,100423.85
2019-03-18T09:10:18.190Z,100427.45
2019-03-18T09:12:47.596Z,100442.03
2019-03-18T09:15:17.051Z,100422.88
2019-03-18T09:17:47.906Z,100436.92
2019-03-18T09:20:18.240Z,100438.55
2019-03-18T09:22:47.673Z,100430.88
2019-03-18T09:25:17.116Z,100428.54
2019-03-18T09:27:46.604Z,100427.17
2019-03-18T09:30:20.768Z,100438.91
2019-03-18T09:32:50.793Z,100455.52
2019-03-18T09:35:20.200Z,100435.33
2019-03-18T09:37:49.635Z,100432.92
2019-03-18T09:40:19.453Z,100434.66
2019-03-18T09:42:48.892Z,100446.11
2019-03-18T09:45:18.537Z,100439.76
2019-03-18T09:47:48.035Z,100442.31
2019-03-18T09:50:17.474Z,100451.86
2019-03-18T09:52:46.923Z,100446.70
2019-03-18T09:55:16.323Z,100466.89
2019-03-18T09:57:45.767Z,100456.48
2019-03-18T10:00:17.270Z,100445.30
2019-03-18T10:02:46.704Z,100448.02
2019-03-18T10:05:16.115Z,100454.80
2019-03-18T10:07:45.548Z,100473.27
2019-03-18T10:10:15.121Z,100458.31
2019-03-18T10:12:44.582Z,100461.90
2019-03-18T10:15:18.412Z,100459.07
2019-03-18T10:17:47.851Z,100451.34
2019-03-18T10:20:17.263Z,100468.02
2019-03-18T10:22:46.702Z,100462.09
2019-03-18T10:25:16.114Z,100466.42
2019-03-18T10:27:45.564Z,100475.75
2019-03-18T10:30:15.714Z,100482.09
2019-03-18T10:32:45.154Z,100473.09
2019-03-18T10:35:14.559Z,100482.73
2019-03-18T10:37:43.997Z,100479.00
2019-03-18T10:40:14.073Z,100491.20
2019-03-18T10:42:43.489Z,100505.28
2019-03-18T10:45:13.541Z,100501.27
2019-03-18T10:47:42.978Z,100495.91
2019-03-18T10:50:14.498Z,100502.25
2019-03-18T10:52:43.976Z,100511.10
2019-03-18T10:55:13.651Z,100518.20
2019-03-18T10:57:43.084Z,100514.19
2019-03-18T11:00:19.292Z,100511.55
2019-03-18T11:02:48.755Z,100503.88
2019-03-18T11:05:18.167Z,100501.67
2019-03-18T11:07:47.600Z,100498.67
2019-03-18T11:10:17.001Z,100509.17
2019-03-18T11:12:46.472Z,100512.61
2019-03-18T11:15:17.313Z,100514.08
2019-03-18T11:17:46.745Z,100503.34
2019-03-18T11:20:17.919Z,100501.85
2019-03-18T11:22:47.369Z,100500.88
2019-03-18T11:25:17.147Z,100501.35
2019-03-18T11:27:47.595Z,100499.55
2019-03-18T11:30:19.098Z,100503.92
2019-03-18T11:32:48.540Z,100503.75
2019-03-18T11:35:17.971Z,100540.81
2019-03-18T11:37:47.406Z,100500.09
2019-03-18T11:40:18.815Z,100492.28
2019-03-18T11:42:48.249Z,100500.51
2019-03-18T11:45:17.740Z,100486.02
2019-03-18T11:47:47.180Z,100496.58
2019-03-18T11:50:17.435Z,100504.19
2019-03-18T11:52:46.866Z,100508.41
2019-03-18T11:55:23.609Z,100505.99
2019-03-18T11:57:53.149Z,100518.59
2019-03-18T12:00:23.394Z,100511.70
2019-03-18T12:02:53.224Z,100516.42
2019-03-18T12:05:23.673Z,100516.73
2019-03-18T12:07:53.337Z,100513.47
2019-03-18T12:10:25.296Z,100506.92
2019-03-18T12:12:53.882Z,100513.36
2019-03-18T12:15:24.634Z,100530.40
2019-03-18T12:17:54.233Z,100520.10
2019-03-18T12:20:25.367Z,100511.82
2019-03-18T12:22:55.165Z,100509.54
2019-03-18T12:25:24.569Z,100511.86
2019-03-18T12:27:54.266Z,100507.84
2019-03-18T12:30:24.612Z,100512.64
2019-03-18T12:32:54.088Z,100521.09
2019-03-18T12:35:23.517Z,100521.77
2019-03-18T12:37:52.923Z,100525.31
2019-03-18T12:40:22.467Z,100518.16
2019-03-18T12:42:51.876Z,100525.80
2019-03-18T12:45:21.988Z,100517.26
2019-03-18T12:47:51.445Z,100517.65
2019-03-18T12:50:38.647Z,100510.66
2019-03-18T12:52:54.032Z,100508.95
2019-03-18T12:55:24.041Z,100523.42
2019-03-18T12:57:53.458Z,100520.62
2019-03-18T13:00:31.434Z,100503.72
2019-03-18T13:03:00.853Z,100512.32
2019-03-18T13:05:30.297Z,100507.80
2019-03-18T13:08:01.074Z,100512.13
2019-03-18T13:10:30.532Z,100518.20
2019-03-18T13:13:00.063Z,100516.59
2019-03-18T13:15:30.749Z,100518.30
2019-03-18T13:18:00.156Z,100521.38
2019-03-18T13:20:29.614Z,100524.83
2019-03-18T13:23:00.457Z,100534.81
2019-03-18T13:25:29.892Z,100525.55
2019-03-18T13:27:59.305Z,100527.80
2019-03-18T13:30:28.739Z,100545.44
2019-03-18T13:32:58.144Z,100544.10
2019-03-18T13:35:27.577Z,100536.73
2019-03-18T13:37:57.128Z,100537.09
2019-03-18T13:40:26.618Z,100554.84
2019-03-18T13:42:55.977Z,100536.77
2019-03-18T13:45:25.420Z,100543.39
2019-03-18T13:47:54.830Z,100532.40
2019-03-18T13:50:24.272Z,100547.58
2019-03-18T13:52:53.686Z,100540.03
2019-03-18T13:55:23.130Z,100540.11
2019-03-18T13:57:52.540Z,100546.66
2019-03-18T14:00:24.666Z,100545.02
2019-03-18T14:02:54.073Z,100541.84
2019-03-18T14:05:23.512Z,100541.80
2019-03-18T14:08:00.078Z,100540.56
2019-03-18T14:10:24.304Z,100555.74
2019-03-18T14:12:53.715Z,100558.18
2019-03-18T14:15:23.991Z,100553.82
2019-03-18T14:17:53.397Z,100567.17
2019-03-18T14:20:27.337Z,100559.20
2019-03-18T14:22:56.745Z,100560.23
2019-03-18T14:25:26.174Z,100569.47
2019-03-18T14:27:55.579Z,100562.55
2019-03-18T14:30:25.078Z,100562.77
2019-03-18T14:32:54.488Z,100550.36
2019-03-18T14:35:23.933Z,100557.83
2019-03-18T14:37:53.338Z,100562.86
2019-03-18T14:40:25.891Z,100550.70
2019-03-18T14:42:55.307Z,100569.35
2019-03-18T14:45:25.085Z,100557.66
2019-03-18T14:47:54.970Z,100560.98
2019-03-18T14:50:24.416Z,100546.25
2019-03-18T14:52:53.813Z,100557.34
2019-03-18T14:55:23.248Z,100567.45
2019-03-18T14:57:52.678Z,100556.75
2019-03-18T15:00:23.978Z,100555.17
2019-03-18T15:02:53.417Z,100559.48
2019-03-18T15:05:22.825Z,100560.05
2019-03-18T15:07:52.265Z,100555.47
2019-03-18T15:10:29.265Z,100550.94
2019-03-18T15:12:58.853Z,100548.88
2019-03-18T15:15:28.265Z,100555.14
2019-03-18T15:17:57.706Z,100547.76
2019-03-18T15:20:27.956Z,100553.73
2019-03-18T15:22:57.394Z,100543.39
2019-03-18T15:25:28.152Z,100543.13
2019-03-18T15:27:57.588Z,100555.23
2019-03-18T15:30:27.617Z,100561.18
2019-03-18T15:32:57.053Z,100557.63
2019-03-18T15:35:26.761Z,100561.55
2019-03-18T15:37:56.750Z,100566.78
2019-03-18T15:40:29.752Z,100570.50
2019-03-18T15:42:59.191Z,100576.85
2019-03-18T15:45:28.604Z,100566.03
2019-03-18T15:47:58.051Z,100570.80
2019-03-18T15:50:27.633Z,100570.80
2019-03-18T15:52:57.069Z,100568.76
2019-03-18T15:55:26.486Z,100568.19
2019-03-18T15:57:55.917Z,100571.08
2019-03-18T16:00:29.720Z,100579.63
2019-03-18T16:02:59.772Z,100577.56
2019-03-18T16:05:29.187Z,100576.23
2019-03-18T16:07:58.844Z,100578.60
2019-03-18T16:10:28.262Z,100580.99
2019-03-18T16:12:58.010Z,100591.59
2019-03-18T16:15:27.537Z,100590.20
2019-03-18T16:17:56.972Z,100596.31
2019-03-18T16:20:27.019Z,100598.67
2019-03-18T16:22:56.827Z,100605.91
2019-03-18T16:25:26.236Z,100605.69
2019-03-18T16:27:55.684Z,100604.03
2019-03-18T16:30:25.097Z,100610.09
2019-03-18T16:32:54.901Z,100612.30
2019-03-18T16:35:24.358Z,100618.36
2019-03-18T16:37:53.806Z,100615.58
2019-03-18T16:40:24.187Z,100610.09
2019-03-18T16:42:53.605Z,100615.30
2019-03-18T16:45:23.049Z,100620.58
2019-03-18T16:47:52.472Z,100620.02
2019-03-18T16:50:24.306Z,100631.84
2019-03-18T16:52:53.721Z,100639.78
2019-03-18T16:55:23.161Z,100645.28
2019-03-18T16:57:52.573Z,100648.45
2019-03-18T17:00:23.327Z,100653.56
2019-03-18T17:02:52.736Z,100655.71
2019-03-18T17:05:22.174Z,100653.03
2019-03-18T17:07:54.066Z,100650.14
2019-03-18T17:10:22.721Z,100648.88
2019-03-18T17:12:52.139Z,100655.39
2019-03-18T17:15:22.122Z,100662.17
2019-03-18T17:17:51.543Z,100662.89
2019-03-18T17:20:20.980Z,100667.58
2019-03-18T17:22:50.666Z,100664.15
2019-03-18T17:25:22.516Z,100673.68
2019-03-18T17:27:51.928Z,100676.95
2019-03-18T17:30:21.538Z,100680.98
2019-03-18T17:32:50.945Z,100687.32
2019-03-18T17:35:20.391Z,100698.07
2019-03-18T17:37:49.806Z,100704.79
2019-03-18T17:40:19.985Z,100711.30
2019-03-18T17:42:49.409Z,100707.15
2019-03-18T17:45:19.069Z,100722.30
2019-03-18T17:47:48.483Z,100718.00
2019-03-18T17:50:20.330Z,100723.84
2019-03-18T17:53:01.499Z,100726.59
2019-03-18T17:55:20.883Z,100738.20
2019-03-18T17:57:50.292Z,100734.75
2019-03-18T18:00:21.367Z,100741.11
2019-03-18T18:02:52.811Z,100737.36
2019-03-18T18:05:21.927Z,100739.80
2019-03-18T18:07:51.341Z,100750.91
2019-03-18T18:10:20.791Z,100752.27
2019-03-18T18:12:50.208Z,100750.45
2019-03-18T18:15:19.650Z,100748.30
2019-03-18T18:17:49.061Z,100748.90
2019-03-18T18:20:18.502Z,100746.39
2019-03-18T18:22:47.919Z,100750.94
2019-03-18T18:25:17.358Z,100750.94
2019-03-18T18:27:46.767Z,100748.16
2019-03-18T18:30:19.702Z,100750.54
2019-03-18T18:32:49.149Z,100760.52
2019-03-18T18:35:18.547Z,100762.86
2019-03-18T18:37:48.558Z,100760.31
2019-03-18T18:40:23.036Z,100762.03
2019-03-18T18:42:52.430Z,100761.86
2019-03-18T18:45:21.997Z,100767.69
2019-03-18T18:47:51.415Z,100767.83
2019-03-18T18:50:20.857Z,100767.12
2019-03-18T18:52:50.304Z,100774.55
2019-03-18T18:55:19.722Z,100779.03
2019-03-18T18:57:49.206Z,100773.25
2019-03-18T19:00:19.963Z,100773.25
2019-03-18T19:02:49.406Z,100779.66
2019-03-18T19:05:19.497Z,100793.17
2019-03-18T19:07:49.275Z,100794.53
2019-03-18T19:10:21.733Z,100792.55
2019-03-18T19:12:51.770Z,100793.84
2019-03-18T19:15:32.396Z,100795.86
2019-03-18T19:18:01.843Z,100793.39
2019-03-18T19:20:31.263Z,100787.03
2019-03-18T19:23:00.706Z,100797.16
2019-03-18T19:25:30.118Z,100785.02
2019-03-18T19:27:59.560Z,100784.17
2019-03-18T19:30:29.514Z,100788.20
2019-03-18T19:32:58.954Z,100795.22
2019-03-18T19:35:28.875Z,100803.28
2019-03-18T19:37:58.735Z,100803.64
2019-03-18T19:40:28.150Z,100814.30
2019-03-18T19:42:57.590Z,100814.75
2019-03-18T19:45:27.007Z,100833.25
2019-03-18T19:47:56.879Z,100825.91
2019-03-18T19:50:28.346Z,100834.76
2019-03-18T19:52:57.811Z,100844.30
2019-03-18T19:55:27.233Z,100847.30
2019-03-18T19:57:56.886Z,100853.70
2019-03-18T20:00:27.630Z,100857.55
2019-03-18T20:02:57.517Z,100858.45
2019-03-18T20:05:26.940Z,100861.05
2019-03-18T20:07:56.401Z,100856.17
2019-03-18T20:10:25.820Z,100856.62
2019-03-18T20:12:55.759Z,100874.75
2019-03-18T20:15:25.205Z,100874.67
2019-03-18T20:17:54.642Z,100872.07
2019-03-18T20:20:24.332Z,100880.71
2019-03-18T20:22:53.775Z,100889.48
2019-03-18T20:25:23.187Z,100889.20
2019-03-18T20:27:52.708Z,100893.91
2019-03-18T20:30:22.564Z,100890.50
2019-03-18T20:32:52.027Z,100901.30
2019-03-18T20:35:23.433Z,100904.74
2019-03-18T20:37:52.884Z,100902.47
2019-03-18T20:40:22.325Z,100902.06
2019-03-18T20:42:52.243Z,100908.51
2019-03-18T20:45:22.597Z,100910.26
2019-03-18T20:47:54.420Z,100902.52
2019-03-18T20:50:33.560Z,100912.98
2019-03-18T20:53:15.664Z,100910.70
2019-03-18T20:55:54.775Z,100919.75
2019-03-18T20:58:25.676Z,100914.33
2019-03-18T21:00:55.134Z,100921.30
2019-03-18T21:03:24.538Z,100923.37
2019-03-18T21:05:53.951Z,100928.73
2019-03-18T21:08:23.421Z,100932.63
2019-03-18T21:10:52.841Z,100934.41
2019-03-18T21:13:22.278Z,100934.41
2019-03-18T21:15:51.692Z,100930.23
2019-03-18T21:18:21.128Z,100935.15
2019-03-18T21:20:50.539Z,100940.87
2019-03-18T21:23:19.973Z,100945.37
2019-03-18T21:25:49.385Z,100948.58
2019-03-18T21:28:18.837Z,100955.72
2019-03-18T21:30:48.244Z,100949.88
2019-03-18T21:33:17.680Z,100947.40
2019-03-18T21:35:47.095Z,100949.34
2019-03-18T21:38:16.539Z,100953.84
2019-03-18T21:40:45.949Z,100948.44
2019-03-18T21:43:15.399Z,100951.72
2019-03-18T21:45:44.808Z,100952.80
2019-03-18T21:48:14.252Z,100954.55
2019-03-18T21:50:43.666Z,100950.80
2019-03-18T21:53:13.101Z,100953.27
2019-03-18T21:55:42.510Z,100958.97
2019-03-18T21:58:11.955Z,100968.27
2019-03-18T22:00:41.449Z,100974.86
2019-03-18T22:03:10.885Z,100982.02
2019-03-18T22:05:40.401Z,100981.86
2019-03-18T22:08:10.055Z,100975.16
2019-03-18T22:10:39.469Z,100990.86
2019-03-18T22:13:08.924Z,100986.85
2019-03-18T22:15:38.338Z,100987.06
2019-03-18T22:18:09.335Z,100988.12
2019-03-18T22:20:39.792Z,100993.59
2019-03-18T22:23:09.233Z,100988.34
2019-03-18T22:25:38.651Z,100988.23
2019-03-18T22:28:08.093Z,100997.75
2019-03-18T22:30:52.063Z,101000.67
2019-03-18T22:33:29.240Z,101003.98
2019-03-18T22:36:01.228Z,101012.30
2019-03-18T22:38:30.758Z,101014.78
2019-03-18T22:41:00.178Z,101006.84
2019-03-18T22:43:29.646Z,101010.52
2019-03-18T22:45:59.061Z,101017.80
2019-03-18T22:48:28.592Z,101016.41
2019-03-18T22:50:58.215Z,101010.94
2019-03-18T22:53:27.783Z,101019.90
2019-03-18T22:55:57.198Z,101029.94
2019-03-18T22:58:26.646Z,101024.30
2019-03-18T23:01:12.549Z,101033.16
2019-03-18T23:03:41.995Z,101023.61
2019-03-18T23:06:11.407Z,101027.61
2019-03-18T23:08:40.855Z,101027.72
2019-03-18T23:11:10.261Z,101026.15
2019-03-18T23:13:39.709Z,101034.28
2019-03-18T23:16:09.120Z,101035.45
2019-03-18T23:18:38.558Z,101028.80
2019-03-18T23:21:07.971Z,101032.45
2019-03-18T23:23:37.408Z,101040.53
2019-03-18T23:26:06.853Z,101050.24
2019-03-18T23:28:36.294Z,101053.98
2019-03-18T23:31:05.728Z,101060.11
2019-03-18T23:33:35.133Z,101064.19
2019-03-18T23:36:04.592Z,101066.47
2019-03-18T23:38:34.003Z,101070.89
2019-03-18T23:41:03.447Z,101070.70
2019-03-18T23:43:32.848Z,101069.54
2019-03-18T23:46:02.301Z,101076.01
2019-03-18T23:48:31.712Z,101076.10
2019-03-18T23:51:01.154Z,101073.16
2019-03-18T23:53:30.561Z,101076.52
2019-03-18T23:56:00.006Z,101072.53
2019-03-18T23:58:29.422Z,101069.85
